sensor_id;sensor_type;location;lat;lon;timestamp;temperature;humidity
506;DHT22;551;48.524;9.056;2023-04-24T00:00:50;12.60;1.00
506;DHT22;551;48.524;9.056;2023-04-24T00:03:16;12.60;1.00
506;DHT22;551;48.524;9.056;2023-04-24T00:05:42;12.60;1.00
506;DHT22;551;48.524;9.056;2023-04-24T00:08:08;12.60;1.00
506;DHT22;551;48.524;9.056;2023-04-24T00:10:33;12.60;1.00
506;DHT22;551;48.524;9.056;2023-04-24T00:12:59;12.50;1.00
506;DHT22;551;48.524;9.056;2023-04-24T00:15:24;12.50;1.00
506;DHT22;551;48.524;9.056;2023-04-24T00:17:50;12.50;1.00
506;DHT22;551;48.524;9.056;2023-04-24T00:20:15;12.50;1.00
506;DHT22;551;48.524;9.056;2023-04-24T00:22:41;12.50;1.00
506;DHT22;551;48.524;9.056;2023-04-24T00:25:07;12.50;1.00
506;DHT22;551;48.524;9.056;2023-04-24T00:27:32;12.50;1.00
506;DHT22;551;48.524;9.056;2023-04-24T00:29:58;12.60;1.00
506;DHT22;551;48.524;9.056;2023-04-24T00:32:24;12.70;1.00
506;DHT22;551;48.524;9.056;2023-04-24T00:34:49;12.70;1.00
506;DHT22;551;48.524;9.056;2023-04-24T00:37:15;12.80;1.00
506;DHT22;551;48.524;9.056;2023-04-24T00:39:40;12.80;1.00
506;DHT22;551;48.524;9.056;2023-04-24T00:42:06;12.80;1.00
506;DHT22;551;48.524;9.056;2023-04-24T00:44:33;12.80;1.00
506;DHT22;551;48.524;9.056;2023-04-24T00:46:59;12.80;1.00
506;DHT22;551;48.524;9.056;2023-04-24T00:49:26;12.80;1.00
506;DHT22;551;48.524;9.056;2023-04-24T00:51:51;12.70;1.00
506;DHT22;551;48.524;9.056;2023-04-24T00:54:18;12.80;1.00
506;DHT22;551;48.524;9.056;2023-04-24T00:56:44;12.80;1.00
506;DHT22;551;48.524;9.056;2023-04-24T00:59:11;12.80;1.00
506;DHT22;551;48.524;9.056;2023-04-24T01:01:38;12.70;1.00
506;DHT22;551;48.524;9.056;2023-04-24T01:04:07;12.70;1.00
506;DHT22;551;48.524;9.056;2023-04-24T01:06:33;12.70;1.00
506;DHT22;551;48.524;9.056;2023-04-24T01:09:00;12.70;1.00
506;DHT22;551;48.524;9.056;2023-04-24T01:11:26;12.80;1.00
506;DHT22;551;48.524;9.056;2023-04-24T01:13:52;12.80;1.00
506;DHT22;551;48.524;9.056;2023-04-24T01:16:18;12.80;1.00
506;DHT22;551;48.524;9.056;2023-04-24T01:18:46;12.70;1.00
506;DHT22;551;48.524;9.056;2023-04-24T01:21:13;12.80;1.00
506;DHT22;551;48.524;9.056;2023-04-24T01:23:40;12.70;1.00
506;DHT22;551;48.524;9.056;2023-04-24T01:26:05;12.60;1.00
506;DHT22;551;48.524;9.056;2023-04-24T01:28:31;12.60;1.00
506;DHT22;551;48.524;9.056;2023-04-24T01:30:57;12.50;1.00
506;DHT22;551;48.524;9.056;2023-04-24T01:33:23;12.50;1.00
506;DHT22;551;48.524;9.056;2023-04-24T01:35:49;12.40;1.00
506;DHT22;551;48.524;9.056;2023-04-24T01:38:14;12.40;1.00
506;DHT22;551;48.524;9.056;2023-04-24T01:40:40;12.30;1.00
506;DHT22;551;48.524;9.056;2023-04-24T01:43:06;12.30;1.00
506;DHT22;551;48.524;9.056;2023-04-24T01:45:32;12.30;1.00
506;DHT22;551;48.524;9.056;2023-04-24T01:47:57;12.30;1.00
506;DHT22;551;48.524;9.056;2023-04-24T01:50:24;12.30;1.00
506;DHT22;551;48.524;9.056;2023-04-24T01:52:49;12.40;1.00
506;DHT22;551;48.524;9.056;2023-04-24T01:55:15;12.30;1.00
506;DHT22;551;48.524;9.056;2023-04-24T01:57:40;12.30;1.00
506;DHT22;551;48.524;9.056;2023-04-24T02:00:06;12.40;1.00
506;DHT22;551;48.524;9.056;2023-04-24T02:02:32;12.30;1.00
506;DHT22;551;48.524;9.056;2023-04-24T02:04:58;12.40;1.00
506;DHT22;551;48.524;9.056;2023-04-24T02:07:24;12.40;1.00
506;DHT22;551;48.524;9.056;2023-04-24T02:09:50;12.50;1.00
506;DHT22;551;48.524;9.056;2023-04-24T02:12:16;12.50;1.00
506;DHT22;551;48.524;9.056;2023-04-24T02:14:42;12.40;1.00
506;DHT22;551;48.524;9.056;2023-04-24T02:17:08;12.40;1.00
506;DHT22;551;48.524;9.056;2023-04-24T02:19:34;12.40;1.00
506;DHT22;551;48.524;9.056;2023-04-24T02:21:59;12.40;1.00
506;DHT22;551;48.524;9.056;2023-04-24T02:24:25;12.30;1.00
506;DHT22;551;48.524;9.056;2023-04-24T02:26:50;12.30;1.00
506;DHT22;551;48.524;9.056;2023-04-24T02:29:16;12.30;1.00
506;DHT22;551;48.524;9.056;2023-04-24T02:31:42;12.30;1.00
506;DHT22;551;48.524;9.056;2023-04-24T02:34:07;12.30;1.00
506;DHT22;551;48.524;9.056;2023-04-24T02:36:33;12.30;1.00
506;DHT22;551;48.524;9.056;2023-04-24T02:38:58;12.40;1.00
506;DHT22;551;48.524;9.056;2023-04-24T02:41:24;12.40;1.00
506;DHT22;551;48.524;9.056;2023-04-24T02:43:49;12.40;1.00
506;DHT22;551;48.524;9.056;2023-04-24T02:46:15;12.30;1.00
506;DHT22;551;48.524;9.056;2023-04-24T02:48:41;12.30;1.00
506;DHT22;551;48.524;9.056;2023-04-24T02:51:06;12.30;1.00
506;DHT22;551;48.524;9.056;2023-04-24T02:53:32;12.30;1.00
506;DHT22;551;48.524;9.056;2023-04-24T02:55:58;12.30;1.00
506;DHT22;551;48.524;9.056;2023-04-24T02:58:23;12.30;1.00
506;DHT22;551;48.524;9.056;2023-04-24T03:00:53;12.30;1.00
506;DHT22;551;48.524;9.056;2023-04-24T03:03:19;12.30;1.00
506;DHT22;551;48.524;9.056;2023-04-24T03:05:45;12.40;1.00
506;DHT22;551;48.524;9.056;2023-04-24T03:08:11;12.30;1.00
506;DHT22;551;48.524;9.056;2023-04-24T03:10:36;12.30;1.00
506;DHT22;551;48.524;9.056;2023-04-24T03:13:02;12.30;1.00
506;DHT22;551;48.524;9.056;2023-04-24T03:15:29;12.30;1.00
506;DHT22;551;48.524;9.056;2023-04-24T03:17:54;12.30;1.00
506;DHT22;551;48.524;9.056;2023-04-24T03:20:20;12.50;1.00
506;DHT22;551;48.524;9.056;2023-04-24T03:22:46;12.50;1.00
506;DHT22;551;48.524;9.056;2023-04-24T03:25:12;12.50;1.00
506;DHT22;551;48.524;9.056;2023-04-24T03:27:37;12.50;1.00
506;DHT22;551;48.524;9.056;2023-04-24T03:30:05;12.40;1.00
506;DHT22;551;48.524;9.056;2023-04-24T03:32:31;12.30;1.00
506;DHT22;551;48.524;9.056;2023-04-24T03:34:57;12.30;1.00
506;DHT22;551;48.524;9.056;2023-04-24T03:37:23;12.30;1.00
506;DHT22;551;48.524;9.056;2023-04-24T03:39:48;12.20;1.00
506;DHT22;551;48.524;9.056;2023-04-24T03:42:14;12.10;1.00
506;DHT22;551;48.524;9.056;2023-04-24T03:44:39;12.00;1.00
506;DHT22;551;48.524;9.056;2023-04-24T03:47:05;11.90;1.00
506;DHT22;551;48.524;9.056;2023-04-24T03:49:30;11.90;1.00
506;DHT22;551;48.524;9.056;2023-04-24T03:51:56;11.90;1.00
506;DHT22;551;48.524;9.056;2023-04-24T03:54:21;11.90;1.00
506;DHT22;551;48.524;9.056;2023-04-24T03:56:47;11.90;1.00
506;DHT22;551;48.524;9.056;2023-04-24T03:59:12;11.90;1.00
506;DHT22;551;48.524;9.056;2023-04-24T04:01:38;11.80;1.00
506;DHT22;551;48.524;9.056;2023-04-24T04:04:05;11.70;1.00
506;DHT22;551;48.524;9.056;2023-04-24T04:06:31;11.60;1.00
506;DHT22;551;48.524;9.056;2023-04-24T04:08:57;11.50;1.00
506;DHT22;551;48.524;9.056;2023-04-24T04:11:23;11.50;1.00
506;DHT22;551;48.524;9.056;2023-04-24T04:13:49;11.50;1.00
506;DHT22;551;48.524;9.056;2023-04-24T04:16:15;11.50;1.00
506;DHT22;551;48.524;9.056;2023-04-24T04:18:44;11.50;1.00
506;DHT22;551;48.524;9.056;2023-04-24T04:21:10;11.60;1.00
506;DHT22;551;48.524;9.056;2023-04-24T04:23:36;11.60;1.00
506;DHT22;551;48.524;9.056;2023-04-24T04:26:02;11.50;1.00
506;DHT22;551;48.524;9.056;2023-04-24T04:28:29;11.60;1.00
506;DHT22;551;48.524;9.056;2023-04-24T04:30:56;11.60;1.00
506;DHT22;551;48.524;9.056;2023-04-24T04:33:24;11.50;1.00
506;DHT22;551;48.524;9.056;2023-04-24T04:35:51;11.60;1.00
506;DHT22;551;48.524;9.056;2023-04-24T04:38:22;11.60;1.00
506;DHT22;551;48.524;9.056;2023-04-24T04:40:47;11.70;1.00
506;DHT22;551;48.524;9.056;2023-04-24T04:43:13;11.70;1.00
506;DHT22;551;48.524;9.056;2023-04-24T04:45:40;11.70;1.00
506;DHT22;551;48.524;9.056;2023-04-24T04:48:07;11.70;1.00
506;DHT22;551;48.524;9.056;2023-04-24T04:50:38;11.70;1.00
506;DHT22;551;48.524;9.056;2023-04-24T04:53:03;11.70;1.00
506;DHT22;551;48.524;9.056;2023-04-24T04:55:29;11.80;1.00
506;DHT22;551;48.524;9.056;2023-04-24T04:57:55;11.70;1.00
506;DHT22;551;48.524;9.056;2023-04-24T05:00:21;11.80;1.00
506;DHT22;551;48.524;9.056;2023-04-24T05:02:47;11.80;1.00
506;DHT22;551;48.524;9.056;2023-04-24T05:05:12;11.80;1.00
506;DHT22;551;48.524;9.056;2023-04-24T05:07:38;11.80;1.00
506;DHT22;551;48.524;9.056;2023-04-24T05:10:04;11.80;1.00
506;DHT22;551;48.524;9.056;2023-04-24T05:12:30;11.80;1.00
506;DHT22;551;48.524;9.056;2023-04-24T05:14:55;11.70;1.00
506;DHT22;551;48.524;9.056;2023-04-24T05:17:20;11.70;1.00
506;DHT22;551;48.524;9.056;2023-04-24T05:19:49;11.70;1.00
506;DHT22;551;48.524;9.056;2023-04-24T05:22:14;11.70;1.00
506;DHT22;551;48.524;9.056;2023-04-24T05:24:40;11.60;1.00
506;DHT22;551;48.524;9.056;2023-04-24T05:27:05;11.70;1.00
506;DHT22;551;48.524;9.056;2023-04-24T05:29:31;11.70;1.00
506;DHT22;551;48.524;9.056;2023-04-24T05:31:58;11.70;1.00
506;DHT22;551;48.524;9.056;2023-04-24T05:34:24;11.60;1.00
506;DHT22;551;48.524;9.056;2023-04-24T05:36:52;11.50;1.00
506;DHT22;551;48.524;9.056;2023-04-24T05:39:18;11.50;1.00
506;DHT22;551;48.524;9.056;2023-04-24T05:41:45;11.60;1.00
506;DHT22;551;48.524;9.056;2023-04-24T05:44:10;11.60;1.00
506;DHT22;551;48.524;9.056;2023-04-24T05:46:36;11.70;1.00
506;DHT22;551;48.524;9.056;2023-04-24T05:49:02;11.70;1.00
506;DHT22;551;48.524;9.056;2023-04-24T05:51:28;11.70;1.00
506;DHT22;551;48.524;9.056;2023-04-24T05:53:53;11.70;1.00
506;DHT22;551;48.524;9.056;2023-04-24T05:56:19;11.80;1.00
506;DHT22;551;48.524;9.056;2023-04-24T05:58:45;11.80;1.00
506;DHT22;551;48.524;9.056;2023-04-24T06:01:12;12.00;1.00
506;DHT22;551;48.524;9.056;2023-04-24T06:03:38;12.30;1.00
506;DHT22;551;48.524;9.056;2023-04-24T06:06:05;12.50;1.00
506;DHT22;551;48.524;9.056;2023-04-24T06:08:31;12.80;1.00
506;DHT22;551;48.524;9.056;2023-04-24T06:10:56;13.00;1.00
506;DHT22;551;48.524;9.056;2023-04-24T06:13:22;13.00;1.00
506;DHT22;551;48.524;9.056;2023-04-24T06:15:47;13.80;1.00
506;DHT22;551;48.524;9.056;2023-04-24T06:18:13;14.80;1.00
506;DHT22;551;48.524;9.056;2023-04-24T06:20:39;15.30;1.00
506;DHT22;551;48.524;9.056;2023-04-24T06:23:04;15.60;1.00
506;DHT22;551;48.524;9.056;2023-04-24T06:25:30;15.50;1.00
506;DHT22;551;48.524;9.056;2023-04-24T06:27:56;15.30;1.00
506;DHT22;551;48.524;9.056;2023-04-24T06:30:22;15.10;1.00
506;DHT22;551;48.524;9.056;2023-04-24T06:32:47;16.20;1.00
506;DHT22;551;48.524;9.056;2023-04-24T06:35:13;17.50;1.00
506;DHT22;551;48.524;9.056;2023-04-24T06:37:42;19.20;1.00
506;DHT22;551;48.524;9.056;2023-04-24T06:40:08;21.00;1.00
506;DHT22;551;48.524;9.056;2023-04-24T06:45:00;22.90;1.00
506;DHT22;551;48.524;9.056;2023-04-24T06:47:26;22.20;1.00
506;DHT22;551;48.524;9.056;2023-04-24T06:49:51;21.10;1.00
506;DHT22;551;48.524;9.056;2023-04-24T06:52:18;20.60;1.00
506;DHT22;551;48.524;9.056;2023-04-24T06:54:43;20.60;1.00
506;DHT22;551;48.524;9.056;2023-04-24T06:57:09;20.30;1.00
506;DHT22;551;48.524;9.056;2023-04-24T06:59:35;20.50;1.00
506;DHT22;551;48.524;9.056;2023-04-24T07:02:01;21.90;1.00
506;DHT22;551;48.524;9.056;2023-04-24T07:04:27;23.40;1.00
506;DHT22;551;48.524;9.056;2023-04-24T07:06:53;24.40;1.00
506;DHT22;551;48.524;9.056;2023-04-24T07:09:24;24.10;1.00
506;DHT22;551;48.524;9.056;2023-04-24T07:11:53;22.80;1.00
506;DHT22;551;48.524;9.056;2023-04-24T07:14:19;21.10;1.00
506;DHT22;551;48.524;9.056;2023-04-24T07:16:46;19.80;1.00
506;DHT22;551;48.524;9.056;2023-04-24T07:19:12;18.90;1.00
506;DHT22;551;48.524;9.056;2023-04-24T07:21:38;19.00;1.00
506;DHT22;551;48.524;9.056;2023-04-24T07:24:03;20.60;1.00
506;DHT22;551;48.524;9.056;2023-04-24T07:26:30;21.10;1.00
506;DHT22;551;48.524;9.056;2023-04-24T07:28:55;20.80;1.00
506;DHT22;551;48.524;9.056;2023-04-24T07:31:21;20.10;1.00
506;DHT22;551;48.524;9.056;2023-04-24T07:33:47;19.50;1.00
506;DHT22;551;48.524;9.056;2023-04-24T07:36:12;18.80;1.00
506;DHT22;551;48.524;9.056;2023-04-24T07:38:42;19.70;1.00
506;DHT22;551;48.524;9.056;2023-04-24T07:41:08;20.70;1.00
506;DHT22;551;48.524;9.056;2023-04-24T07:43:34;20.50;1.00
506;DHT22;551;48.524;9.056;2023-04-24T07:45:59;20.80;1.00
506;DHT22;551;48.524;9.056;2023-04-24T07:48:25;20.80;1.00
506;DHT22;551;48.524;9.056;2023-04-24T07:50:51;19.80;1.00
506;DHT22;551;48.524;9.056;2023-04-24T07:53:17;18.80;1.00
506;DHT22;551;48.524;9.056;2023-04-24T07:55:43;18.00;1.00
506;DHT22;551;48.524;9.056;2023-04-24T07:58:08;17.70;1.00
506;DHT22;551;48.524;9.056;2023-04-24T08:00:34;17.90;1.00
506;DHT22;551;48.524;9.056;2023-04-24T08:03:00;18.90;1.00
506;DHT22;551;48.524;9.056;2023-04-24T08:05:25;20.10;1.00
506;DHT22;551;48.524;9.056;2023-04-24T08:07:52;20.70;1.00
506;DHT22;551;48.524;9.056;2023-04-24T08:10:18;20.80;1.00
506;DHT22;551;48.524;9.056;2023-04-24T08:12:44;21.00;1.00
506;DHT22;551;48.524;9.056;2023-04-24T08:15:10;21.50;1.00
506;DHT22;551;48.524;9.056;2023-04-24T08:17:35;21.60;1.00
506;DHT22;551;48.524;9.056;2023-04-24T08:20:02;22.40;1.00
506;DHT22;551;48.524;9.056;2023-04-24T08:22:28;21.80;1.00
506;DHT22;551;48.524;9.056;2023-04-24T08:24:54;21.20;1.00
506;DHT22;551;48.524;9.056;2023-04-24T08:27:21;20.60;1.00
506;DHT22;551;48.524;9.056;2023-04-24T08:29:46;20.40;1.00
506;DHT22;551;48.524;9.056;2023-04-24T08:32:12;20.10;1.00
506;DHT22;551;48.524;9.056;2023-04-24T08:34:37;20.80;1.00
506;DHT22;551;48.524;9.056;2023-04-24T08:37:03;21.50;1.00
506;DHT22;551;48.524;9.056;2023-04-24T08:39:29;22.10;1.00
506;DHT22;551;48.524;9.056;2023-04-24T08:41:55;22.20;1.00
506;DHT22;551;48.524;9.056;2023-04-24T08:44:20;22.90;1.00
506;DHT22;551;48.524;9.056;2023-04-24T08:46:48;24.50;1.00
506;DHT22;551;48.524;9.056;2023-04-24T08:49:14;24.80;1.00
506;DHT22;551;48.524;9.056;2023-04-24T08:51:44;25.10;1.00
506;DHT22;551;48.524;9.056;2023-04-24T08:54:11;26.20;1.00
506;DHT22;551;48.524;9.056;2023-04-24T08:56:37;26.20;1.00
506;DHT22;551;48.524;9.056;2023-04-24T08:59:05;26.40;1.00
506;DHT22;551;48.524;9.056;2023-04-24T09:01:32;26.40;1.00
506;DHT22;551;48.524;9.056;2023-04-24T09:04:03;26.40;1.00
506;DHT22;551;48.524;9.056;2023-04-24T09:06:30;26.00;1.00
506;DHT22;551;48.524;9.056;2023-04-24T09:08:58;26.80;1.00
506;DHT22;551;48.524;9.056;2023-04-24T09:11:26;27.40;1.00
506;DHT22;551;48.524;9.056;2023-04-24T09:13:53;27.80;1.00
506;DHT22;551;48.524;9.056;2023-04-24T09:16:20;28.20;1.00
506;DHT22;551;48.524;9.056;2023-04-24T09:18:46;27.60;1.00
506;DHT22;551;48.524;9.056;2023-04-24T09:21:11;27.80;1.00
506;DHT22;551;48.524;9.056;2023-04-24T09:23:37;28.10;1.00
506;DHT22;551;48.524;9.056;2023-04-24T09:26:04;27.70;1.00
506;DHT22;551;48.524;9.056;2023-04-24T09:31:21;27.30;1.00
506;DHT22;551;48.524;9.056;2023-04-24T09:34:02;25.20;1.00
506;DHT22;551;48.524;9.056;2023-04-24T09:36:38;23.60;1.00
506;DHT22;551;48.524;9.056;2023-04-24T09:39:05;22.20;1.00
506;DHT22;551;48.524;9.056;2023-04-24T09:41:32;20.90;1.00
506;DHT22;551;48.524;9.056;2023-04-24T09:44:19;20.00;1.00
506;DHT22;551;48.524;9.056;2023-04-24T09:46:55;19.40;1.00
506;DHT22;551;48.524;9.056;2023-04-24T09:49:24;19.00;1.00
506;DHT22;551;48.524;9.056;2023-04-24T09:51:50;19.20;1.00
506;DHT22;551;48.524;9.056;2023-04-24T09:54:20;19.00;1.00
506;DHT22;551;48.524;9.056;2023-04-24T09:56:48;18.80;1.00
506;DHT22;551;48.524;9.056;2023-04-24T09:59:17;18.50;1.00
506;DHT22;551;48.524;9.056;2023-04-24T10:01:43;18.10;1.00
506;DHT22;551;48.524;9.056;2023-04-24T10:04:17;18.80;1.00
506;DHT22;551;48.524;9.056;2023-04-24T10:06:43;20.40;1.00
506;DHT22;551;48.524;9.056;2023-04-24T10:09:09;21.20;1.00
506;DHT22;551;48.524;9.056;2023-04-24T10:11:37;22.10;1.00
506;DHT22;551;48.524;9.056;2023-04-24T10:14:05;23.20;1.00
506;DHT22;551;48.524;9.056;2023-04-24T10:16:31;23.30;1.00
506;DHT22;551;48.524;9.056;2023-04-24T10:18:59;24.10;1.00
506;DHT22;551;48.524;9.056;2023-04-24T10:21:26;24.30;1.00
506;DHT22;551;48.524;9.056;2023-04-24T10:23:52;23.30;1.00
506;DHT22;551;48.524;9.056;2023-04-24T10:26:19;22.60;1.00
506;DHT22;551;48.524;9.056;2023-04-24T10:28:47;21.80;1.00
506;DHT22;551;48.524;9.056;2023-04-24T10:31:14;21.00;1.00
506;DHT22;551;48.524;9.056;2023-04-24T10:33:43;20.20;1.00
506;DHT22;551;48.524;9.056;2023-04-24T10:36:10;19.60;1.00
506;DHT22;551;48.524;9.056;2023-04-24T10:38:37;19.00;1.00
506;DHT22;551;48.524;9.056;2023-04-24T10:41:10;18.60;1.00
506;DHT22;551;48.524;9.056;2023-04-24T10:43:41;17.90;1.00
506;DHT22;551;48.524;9.056;2023-04-24T10:46:18;17.70;1.00
506;DHT22;551;48.524;9.056;2023-04-24T10:48:52;17.70;1.00
506;DHT22;551;48.524;9.056;2023-04-24T10:51:22;17.40;1.00
506;DHT22;551;48.524;9.056;2023-04-24T10:53:49;17.30;1.00
506;DHT22;551;48.524;9.056;2023-04-24T10:56:16;17.30;1.00
506;DHT22;551;48.524;9.056;2023-04-24T10:58:43;17.40;1.00
506;DHT22;551;48.524;9.056;2023-04-24T11:01:32;17.20;1.00
506;DHT22;551;48.524;9.056;2023-04-24T11:04:00;16.80;1.00
506;DHT22;551;48.524;9.056;2023-04-24T11:06:30;16.90;1.00
506;DHT22;551;48.524;9.056;2023-04-24T11:09:07;17.00;1.00
506;DHT22;551;48.524;9.056;2023-04-24T11:11:35;17.40;1.00
506;DHT22;551;48.524;9.056;2023-04-24T11:14:06;17.50;1.00
506;DHT22;551;48.524;9.056;2023-04-24T11:16:37;17.90;1.00
506;DHT22;551;48.524;9.056;2023-04-24T11:19:26;17.90;1.00
506;DHT22;551;48.524;9.056;2023-04-24T11:21:58;17.50;1.00
506;DHT22;551;48.524;9.056;2023-04-24T11:26:56;17.40;1.00
506;DHT22;551;48.524;9.056;2023-04-24T11:29:22;17.10;1.00
506;DHT22;551;48.524;9.056;2023-04-24T11:31:48;17.00;1.00
506;DHT22;551;48.524;9.056;2023-04-24T11:34:17;16.90;1.00
506;DHT22;551;48.524;9.056;2023-04-24T11:36:45;16.60;1.00
506;DHT22;551;48.524;9.056;2023-04-24T11:39:11;16.30;1.00
506;DHT22;551;48.524;9.056;2023-04-24T11:41:37;15.90;1.00
506;DHT22;551;48.524;9.056;2023-04-24T11:44:05;15.70;1.00
506;DHT22;551;48.524;9.056;2023-04-24T11:46:31;15.60;1.00
506;DHT22;551;48.524;9.056;2023-04-24T11:48:57;16.20;1.00
506;DHT22;551;48.524;9.056;2023-04-24T11:51:24;16.60;1.00
506;DHT22;551;48.524;9.056;2023-04-24T11:53:55;17.10;1.00
506;DHT22;551;48.524;9.056;2023-04-24T11:56:24;17.20;1.00
506;DHT22;551;48.524;9.056;2023-04-24T11:58:53;17.00;1.00
506;DHT22;551;48.524;9.056;2023-04-24T12:01:20;16.90;1.00
506;DHT22;551;48.524;9.056;2023-04-24T12:03:50;16.70;1.00
506;DHT22;551;48.524;9.056;2023-04-24T12:06:16;16.70;1.00
506;DHT22;551;48.524;9.056;2023-04-24T12:08:46;16.80;1.00
506;DHT22;551;48.524;9.056;2023-04-24T12:11:11;16.70;1.00
506;DHT22;551;48.524;9.056;2023-04-24T12:13:39;16.20;1.00
506;DHT22;551;48.524;9.056;2023-04-24T12:16:05;15.80;1.00
506;DHT22;551;48.524;9.056;2023-04-24T12:18:31;15.60;1.00
506;DHT22;551;48.524;9.056;2023-04-24T12:21:21;15.60;1.00
506;DHT22;551;48.524;9.056;2023-04-24T12:23:47;15.60;1.00
506;DHT22;551;48.524;9.056;2023-04-24T12:26:20;15.60;1.00
506;DHT22;551;48.524;9.056;2023-04-24T12:28:48;15.50;1.00
506;DHT22;551;48.524;9.056;2023-04-24T12:31:17;15.30;1.00
506;DHT22;551;48.524;9.056;2023-04-24T12:33:42;15.10;1.00
506;DHT22;551;48.524;9.056;2023-04-24T12:36:11;15.10;1.00
506;DHT22;551;48.524;9.056;2023-04-24T12:38:43;14.90;1.00
506;DHT22;551;48.524;9.056;2023-04-24T12:41:11;14.80;1.00
506;DHT22;551;48.524;9.056;2023-04-24T12:43:37;14.80;1.00
506;DHT22;551;48.524;9.056;2023-04-24T12:46:03;14.80;1.00
506;DHT22;551;48.524;9.056;2023-04-24T12:48:29;14.80;1.00
506;DHT22;551;48.524;9.056;2023-04-24T12:50:57;14.70;1.00
506;DHT22;551;48.524;9.056;2023-04-24T12:53:25;14.80;1.00
506;DHT22;551;48.524;9.056;2023-04-24T12:55:51;14.90;1.00
506;DHT22;551;48.524;9.056;2023-04-24T12:58:21;15.00;1.00
506;DHT22;551;48.524;9.056;2023-04-24T13:00:47;15.20;1.00
506;DHT22;551;48.524;9.056;2023-04-24T13:03:13;15.40;1.00
506;DHT22;551;48.524;9.056;2023-04-24T13:05:39;15.80;1.00
506;DHT22;551;48.524;9.056;2023-04-24T13:08:05;16.10;1.00
506;DHT22;551;48.524;9.056;2023-04-24T13:10:32;16.30;1.00
506;DHT22;551;48.524;9.056;2023-04-24T13:12:57;16.20;1.00
506;DHT22;551;48.524;9.056;2023-04-24T13:15:23;16.30;1.00
506;DHT22;551;48.524;9.056;2023-04-24T13:17:50;16.20;1.00
506;DHT22;551;48.524;9.056;2023-04-24T13:20:16;15.80;1.00
506;DHT22;551;48.524;9.056;2023-04-24T13:22:42;15.60;1.00
506;DHT22;551;48.524;9.056;2023-04-24T13:25:08;15.50;1.00
506;DHT22;551;48.524;9.056;2023-04-24T13:27:34;15.50;1.00
506;DHT22;551;48.524;9.056;2023-04-24T13:30:00;15.60;1.00
506;DHT22;551;48.524;9.056;2023-04-24T13:32:25;15.60;1.00
506;DHT22;551;48.524;9.056;2023-04-24T13:34:52;15.60;1.00
506;DHT22;551;48.524;9.056;2023-04-24T13:37:17;15.70;1.00
506;DHT22;551;48.524;9.056;2023-04-24T13:39:43;15.60;1.00
506;DHT22;551;48.524;9.056;2023-04-24T13:42:08;15.70;1.00
506;DHT22;551;48.524;9.056;2023-04-24T13:44:34;15.70;1.00
506;DHT22;551;48.524;9.056;2023-04-24T13:46:59;15.70;1.00
506;DHT22;551;48.524;9.056;2023-04-24T13:49:26;15.70;1.00
506;DHT22;551;48.524;9.056;2023-04-24T13:51:52;15.70;1.00
506;DHT22;551;48.524;9.056;2023-04-24T13:54:18;15.70;1.00
506;DHT22;551;48.524;9.056;2023-04-24T13:56:43;15.70;1.00
506;DHT22;551;48.524;9.056;2023-04-24T13:59:09;15.70;1.00
506;DHT22;551;48.524;9.056;2023-04-24T14:01:34;15.80;1.00
506;DHT22;551;48.524;9.056;2023-04-24T14:04:00;15.90;1.00
506;DHT22;551;48.524;9.056;2023-04-24T14:06:26;15.80;1.00
506;DHT22;551;48.524;9.056;2023-04-24T14:08:51;15.90;1.00
506;DHT22;551;48.524;9.056;2023-04-24T14:11:18;15.80;1.00
506;DHT22;551;48.524;9.056;2023-04-24T14:13:44;15.70;1.00
506;DHT22;551;48.524;9.056;2023-04-24T14:16:10;15.60;1.00
506;DHT22;551;48.524;9.056;2023-04-24T14:18:36;15.20;1.00
506;DHT22;551;48.524;9.056;2023-04-24T14:21:04;15.00;1.00
506;DHT22;551;48.524;9.056;2023-04-24T14:23:30;15.00;1.00
506;DHT22;551;48.524;9.056;2023-04-24T14:25:57;15.00;1.00
506;DHT22;551;48.524;9.056;2023-04-24T14:28:23;14.90;1.00
506;DHT22;551;48.524;9.056;2023-04-24T14:30:48;14.80;1.00
506;DHT22;551;48.524;9.056;2023-04-24T14:33:14;14.70;1.00
506;DHT22;551;48.524;9.056;2023-04-24T14:35:41;14.60;1.00
506;DHT22;551;48.524;9.056;2023-04-24T14:38:07;14.70;1.00
506;DHT22;551;48.524;9.056;2023-04-24T14:40:32;14.70;1.00
506;DHT22;551;48.524;9.056;2023-04-24T14:42:58;14.70;1.00
506;DHT22;551;48.524;9.056;2023-04-24T14:45:25;14.70;1.00
506;DHT22;551;48.524;9.056;2023-04-24T14:47:50;14.90;1.00
506;DHT22;551;48.524;9.056;2023-04-24T14:50:17;15.00;1.00
506;DHT22;551;48.524;9.056;2023-04-24T14:52:43;15.00;1.00
506;DHT22;551;48.524;9.056;2023-04-24T14:55:09;15.10;1.00
506;DHT22;551;48.524;9.056;2023-04-24T14:57:34;15.10;1.00
506;DHT22;551;48.524;9.056;2023-04-24T15:00:01;15.10;1.00
506;DHT22;551;48.524;9.056;2023-04-24T15:02:28;15.20;1.00
506;DHT22;551;48.524;9.056;2023-04-24T15:04:54;15.20;1.00
506;DHT22;551;48.524;9.056;2023-04-24T15:07:20;15.10;1.00
506;DHT22;551;48.524;9.056;2023-04-24T15:09:45;15.10;1.00
506;DHT22;551;48.524;9.056;2023-04-24T15:12:12;15.20;1.00
506;DHT22;551;48.524;9.056;2023-04-24T15:14:38;15.10;1.00
506;DHT22;551;48.524;9.056;2023-04-24T15:17:03;15.10;1.00
506;DHT22;551;48.524;9.056;2023-04-24T15:19:29;15.20;1.00
506;DHT22;551;48.524;9.056;2023-04-24T15:21:54;15.20;1.00
506;DHT22;551;48.524;9.056;2023-04-24T15:24:20;15.10;1.00
506;DHT22;551;48.524;9.056;2023-04-24T15:26:45;15.10;1.00
506;DHT22;551;48.524;9.056;2023-04-24T15:29:11;15.10;1.00
506;DHT22;551;48.524;9.056;2023-04-24T15:31:36;15.10;1.00
506;DHT22;551;48.524;9.056;2023-04-24T15:34:04;15.10;1.00
506;DHT22;551;48.524;9.056;2023-04-24T15:36:30;15.10;1.00
506;DHT22;551;48.524;9.056;2023-04-24T15:38:56;15.00;1.00
506;DHT22;551;48.524;9.056;2023-04-24T15:41:21;14.90;1.00
506;DHT22;551;48.524;9.056;2023-04-24T15:43:47;15.00;1.00
506;DHT22;551;48.524;9.056;2023-04-24T15:46:12;15.00;1.00
506;DHT22;551;48.524;9.056;2023-04-24T15:48:38;15.00;1.00
506;DHT22;551;48.524;9.056;2023-04-24T15:51:06;15.00;1.00
506;DHT22;551;48.524;9.056;2023-04-24T15:53:31;15.00;1.00
506;DHT22;551;48.524;9.056;2023-04-24T15:55:57;15.00;1.00
506;DHT22;551;48.524;9.056;2023-04-24T15:58:23;15.10;1.00
506;DHT22;551;48.524;9.056;2023-04-24T16:00:49;15.20;1.00
506;DHT22;551;48.524;9.056;2023-04-24T16:03:14;15.20;1.00
506;DHT22;551;48.524;9.056;2023-04-24T16:05:40;15.30;1.00
506;DHT22;551;48.524;9.056;2023-04-24T16:08:06;15.50;1.00
506;DHT22;551;48.524;9.056;2023-04-24T16:10:31;15.50;1.00
506;DHT22;551;48.524;9.056;2023-04-24T16:12:57;15.50;1.00
506;DHT22;551;48.524;9.056;2023-04-24T16:15:25;15.50;1.00
506;DHT22;551;48.524;9.056;2023-04-24T16:17:51;15.50;1.00
506;DHT22;551;48.524;9.056;2023-04-24T16:20:16;15.50;1.00
506;DHT22;551;48.524;9.056;2023-04-24T16:22:42;15.60;1.00
506;DHT22;551;48.524;9.056;2023-04-24T16:25:08;15.60;1.00
506;DHT22;551;48.524;9.056;2023-04-24T16:27:34;15.60;1.00
506;DHT22;551;48.524;9.056;2023-04-24T16:30:00;15.50;1.00
506;DHT22;551;48.524;9.056;2023-04-24T16:32:25;15.60;1.00
506;DHT22;551;48.524;9.056;2023-04-24T16:34:51;15.50;1.00
506;DHT22;551;48.524;9.056;2023-04-24T16:37:17;15.40;1.00
506;DHT22;551;48.524;9.056;2023-04-24T16:39:43;15.50;1.00
506;DHT22;551;48.524;9.056;2023-04-24T16:42:13;15.40;1.00
506;DHT22;551;48.524;9.056;2023-04-24T16:44:40;15.30;1.00
506;DHT22;551;48.524;9.056;2023-04-24T16:47:06;15.20;1.00
506;DHT22;551;48.524;9.056;2023-04-24T16:49:32;15.20;1.00
506;DHT22;551;48.524;9.056;2023-04-24T16:51:58;15.20;1.00
506;DHT22;551;48.524;9.056;2023-04-24T16:54:23;15.10;1.00